Arrey, NM

12:47 AM MDT on September 05, 2015 (GMT -0600)
Truth Or Consequences Municipal | | Change Station
CLOSE
Current Station
Airport
Location: Truth Or Consequences,
Elevation: 4859 ft
Nearby Weather Stations

Elev 4859 ft 33.24 °N, 107.27 °W | Updated 54 minutes ago

Overcast
Overcast
67 °F
Feels Like 67 °F
N
5
Wind Variable Wind from West

Today
High -- | Low -- °F
--% Chance of Precip.
Yesterday
High -- | Low -- °F
Precip. -- in
6:46 AM 7:29 PM
Waning Gibbous, 51% visible
Pressure 29.90 in
Visibility 10.0 miles
Clouds Mostly Cloudy 8500 ft
Overcast 11000 ft
Dew Point 61 °F
Humidity 81%
Rainfall 0.03 in
Snow Depth Not available.
UV 0 out of 12
Pollen 2.60 out of 12
Air Quality Not available.
Flu Activity Not available.
METAR KTCS 050553Z AUTO 28004KT 10SM BKN085 OVC110 19/16 A3011 RMK AO2 RAE34 SLP125 P0001 60001 T01940161 10244 20194 50006 TSNO
Pressure 29.90 in
Visibility 10.0 miles
Clouds Mostly Cloudy 8500 ft
Overcast 11000 ft
Dew Point 61 °F
Humidity 81%
Rainfall 0.03 in
Snow Depth Not available.
UV 0 out of 12
Pollen 2.60 out of 12
Air Quality Not available.
Flu Activity Not available.
METAR KTCS 050553Z AUTO 28004KT 10SM BKN085 OVC110 19/16 A3011 RMK AO2 RAE34 SLP125 P0001 60001 T01940161 10244 20194 50006 TSNO
Nowcast | as of 11:49 PM MDT on September 4, 2015

At 1150 am MDT the National Weather Service Doppler radar indicated the presence of scattered and isolated light rain showers in portions of southwestern and southcentral New Mexico and far West Texas. These showers were moving to the northeast between 10 and 20 mph. Rainfall should be less than one tenth of an inch... although areas of moderate rainfall could be embedded with this activity.

×

10-Day Weather Forecast

×

Almanac

Astronomy

Sep. 05, 2015 Rise Set
Actual Time
Civil Twilight
Nautical Twilight
Astronomical Twilight
Moon
Length of Visible Light
Length of Day
Tomorrow will be .
, % of the Moon is Illuminated

Today's Extremes

State Highs State Lows

Community

WunderPhotos

Upload Photos

1,852,430 photos uploaded!

WunderBlogs® & News

Nearby

Air Quality

  Air Quality AQ Index Pollutant
Not available.

Snow Depth

Station Depth Elevation

Earthquake Activity

City Distance Mag. Time & Date
Minimum magnitude displayed is 2.5.

Coastal Water Temperatures

Place Temperature

Stations

Nearby Weather Stations

Station Location Temp. Windchill Dew Point Humidity Wind Precip. Elev Updated Type